EDT,Max TemperatureF,Mean TemperatureF,Min TemperatureF,Max Dew PointF,MeanDew PointF,Min DewpointF,Max Humidity, Mean Humidity, Min Humidity, Max Sea Level PressureIn, Mean Sea Level PressureIn, Min Sea Level PressureIn, Max VisibilityMiles, Mean VisibilityMiles, Min VisibilityMiles, Max Wind SpeedMPH, Mean Wind SpeedMPH, Max Gust SpeedMPH,PrecipitationIn, CloudCover, Events, WindDirDegrees
2013-9-1,87,78,71,74,71,69,100,88,65,29.84,29.81,29.77,10,7,1,7,1,,0.14,5,Rain,173
2013-9-2,79,74,69,73,70,68,100,94,78,29.80,29.76,29.71,10,4,0,12,1,25,0.65,4,Fog-Rain,334
2013-9-3,82,71,61,72,66,56,100,84,42,29.90,29.76,29.71,10,6,1,13,2,20,0.00,6,,326
2013-9-4,81,66,53,60,57,54,100,82,47,30.01,29.95,29.89,10,7,1,6,1,,0.00,0,,262
2013-9-5,78,66,53,61,54,43,100,81,31,30.15,29.99,29.94,10,6,1,13,1,18,0.01,1,,331
2013-9-6,72,58,46,51,45,38,97,68,31,30.26,30.19,30.14,10,10,10,7,2,,0.01,0,,347
2013-9-7,79,62,45,60,50,43,96,75,37,30.14,30.04,29.91,10,10,4,6,1,,0.00,0,Rain,313
2013-9-8,82,70,57,63,56,46,100,72,42,30.08,29.89,29.83,10,9,1,14,2,21,0.00,3,,330
2013-9-9,75,60,46,60,52,45,93,71,51,30.23,30.17,30.10,10,10,10,6,2,,0.01,3,,178
2013-9-10,86,76,66,73,68,60,100,86,63,30.15,30.11,30.04,10,7,0,7,3,,0.00,4,Fog-Rain,179
2013-9-11,93,78,66,77,70,66,100,90,55,30.11,30.07,29.97,8,2,0,7,0,16,0.00,1,Fog-Rain,198
2013-9-12,86,76,66,75,71,66,100,91,69,29.98,29.87,29.68,10,4,0,17,1,26,0.39,3,Fog-Rain,200
2013-9-13,77,67,57,67,58,47,100,74,48,29.87,29.72,29.64,10,9,2,15,3,22,0.04,2,Rain,329
2013-9-14,64,55,46,47,45,43,93,67,50,30.14,30.01,29.88,10,10,10,14,6,24,0.00,2,,327
2013-9-15,72,56,41,55,47,40,97,76,42,30.22,30.15,30.08,10,10,7,8,1,,0.01,0,,260
2013-9-16,73,62,53,58,52,48,97,76,48,30.25,30.10,30.04,10,9,4,8,2,,0.07,5,Rain,338
2013-9-17,68,54,41,47,41,35,93,64,35,30.43,30.36,30.27,10,10,10,13,4,16,0.01,1,,18
2013-9-18,71,54,39,50,43,37,100,76,38,30.36,30.28,30.19,10,9,2,5,1,,0.01,0,,320
2013-9-19,75,57,39,55,47,39,100,81,37,30.19,30.14,30.07,10,8,1,5,0,,0.00,0,,190
2013-9-20,79,61,44,60,52,43,100,81,46,30.09,30.05,29.97,10,8,1,7,1,,0.01,0,,172
2013-9-21,79,62,46,67,55,46,100,89,44,30.01,29.87,29.66,10,4,0,10,1,22,1.12,5,Fog-Rain,239
2013-9-22,68,62,55,63,51,39,96,69,42,29.93,29.77,29.66,10,9,2,13,4,21,0.28,4,Rain,331
2013-9-23,66,55,44,45,42,39,93,62,42,30.05,30.00,29.94,10,10,10,14,6,24,0.00,1,,335
2013-9-24,73,55,37,51,43,36,97,73,32,30.07,29.98,29.88,10,10,6,10,2,16,0.00,0,,318
2013-9-25,73,56,41,53,46,39,96,75,38,29.96,29.93,29.88,10,10,4,5,0,,0.01,0,,245
2013-9-26,73,59,45,57,52,44,97,81,51,30.09,30.01,29.94,10,10,5,9,2,,0.01,3,,20
2013-9-27,71,60,50,55,51,48,100,79,47,30.26,30.18,30.10,10,10,2,5,2,,0.01,5,,343
2013-9-28,75,64,51,53,51,46,96,74,37,30.32,30.27,30.23,10,10,5,13,2,17,0.00,3,,13
2013-9-29,73,60,46,56,51,45,100,83,49,30.23,30.14,30.07,10,9,2,4,1,,0.01,2,,324
2013-9-30,75,58,44,54,48,43,100,85,42,30.08,30.04,29.97,10,7,1,5,1,,0.01,0,,320